A- A+ FrançaisEnglishEspañol中国

最近的 ETNL Laage MilDIBK BouakeENST Sandnessjoen StokkaEPGD Gdansk RebiechowoHEGN HurghadaLFBT Tarbes-Lourdes-Pyrénées

飞行员的航空天气,使用METAR(气象机场报告)进行的飞行准备和TAF(终端机场预报:针对以下情况的短期天气预报)航空)。 以及其他资源,例如VAC(目视进近图)和NOTAM(通知飞行员)以进行预试飞行.

METAR, TAF, VAC, NOTAM Wemindji机场 (加拿大) / OACI CYNC/ IATA YNC

它位于附近 Wemindji, Wemindji 在 11 km, Chisasibi 在 80 km, Eastmain 在 102 km, Waskaganish 在 201 km, Moosonee 在 228 km,

机场的高度为 Wemindji机场的

20 m = 66 ft

附近的机场Wemindji机场的

跑道 Wemindji机场的

目前的天气 Wemindji机场的 - CYNC

pluie d'intensité moyenne
-2°C

Vent 13 km/h

可提供5天天气预报 Wemindji 在 11 km, Chisasibi 在 80 km, Eastmain 在 102 km, Waskaganish 在 201 km, Moosonee 在 228 km,

METAR Wemindji机场的 - CYNC

CYNC 041755Z 16007KT 120V190 2SM -SN SCT003 BKN009 OVC020 M02/M02 A2992 RMK SF3SC4SC1 SLP135

Wemindji机场METAR解码 (加拿大)

CYNC机场发行的METAR日期2019年11月04日至17:55 GMT, 警告:此METAR已过期, 已于 240 天 15 小时 55 分钟.

可见度为3.2 km = 2 sm.

温度为-2°C = 28 °F 露点为-2°C = 28 °F 。 这相当于100%的相对湿度。.

QNH是1013 hPa = 29.91 inHg

的风7 kt = 13 km/h, 风向为160°.

云:距离300 ft = 90 m. 距云900 ft = 270 m. 多云2000 ft = 610 m.

光雪

备注 SF3SC4SC1 SLP135

TAF Wemindji机场的 - CYNC

没有TAF

Wemindji机场的NOTAM

提供的NOTAM不能保证其时事性。 在将其用于飞行准备或在飞行期间使用之前,飞行员是唯一负责验证其有效性的人员。

NOTAM Non-directional radio beacon (从 2020年03月23日 时间上午 23:17 到 2020年06月18日 时间上午 23:59)

N0823/20 NOTAMR N0766/20nQ) CZUL/QNBAS/IV/BO/AE/000/999/5301N07849W025nA) CYNC B) 2003222317 C) 2006172359nE) WEMINDJI NDB YNC 385KHZ U/SnCREATED: 22 Mar 2020 23:17:00 nSOURCE: CYHQYNYX

数据源